Time;durP1;ratioP1;P1;durP2;ratioP2;P2;SDS_P1;SDS_P2;PMS_P1;PMS_P2;Temp;Humidity;BMP_temperature;BMP_pressure;BME280_temperature;BME280_humidity;BME280_pressure;Samples;Min_cycle;Max_cycle;Signal;HPM_P1;HPM_P2
2022/07/12 00:00:34;;;;;;;;;;;13.50;99.90;;;;;;4789569;29;20022;-69
2022/07/12 00:02:59;;;;;;;;;;;13.50;99.90;;;;;;4781980;29;19931;-70
2022/07/12 00:05:25;;;;;;;;;;;13.50;99.90;;;;;;4803044;29;19974;-69
2022/07/12 00:07:50;;;;;;;;;;;13.50;99.90;;;;;;4805050;29;19925;-68
2022/07/12 00:10:16;;;;;;;;;;;13.50;99.90;;;;;;4774439;29;19925;-68
2022/07/12 00:12:41;;;;;;;;;;;13.50;99.90;;;;;;4790465;29;19925;-70
2022/07/12 00:15:07;;;;;;;;;;;13.50;99.90;;;;;;4790442;29;20294;-68
2022/07/12 00:17:32;;;;;;;;;;;13.50;99.90;;;;;;4788681;29;19925;-68
2022/07/12 00:19:58;;;;;;;;;;;13.40;99.90;;;;;;4805297;29;19925;-68
2022/07/12 00:22:24;;;;;;;;;;;13.40;99.90;;;;;;4805234;29;19925;-69
2022/07/12 00:24:49;;;;;;;;;;;13.40;99.90;;;;;;4792152;29;19929;-70
2022/07/12 00:27:15;;;;;;;;;;;13.40;99.90;;;;;;4805051;29;19932;-69
2022/07/12 00:29:40;;;;;;;;;;;13.40;99.90;;;;;;4798636;29;19925;-68
2022/07/12 00:32:07;;;;;;;;;;;13.50;99.90;;;;;;4804740;29;20008;-68
2022/07/12 00:34:33;;;;;;;;;;;13.40;99.90;;;;;;4788937;29;20405;-68
2022/07/12 00:36:58;;;;;;;;;;;13.40;99.90;;;;;;4784631;29;19969;-69
2022/07/12 00:39:24;;;;;;;;;;;13.40;99.90;;;;;;4790151;29;19974;-70
2022/07/12 00:41:49;;;;;;;;;;;13.30;99.90;;;;;;4787362;29;19933;-70
2022/07/12 00:44:15;;;;;;;;;;;13.40;99.90;;;;;;4788850;29;19925;-69
2022/07/12 00:46:40;;;;;;;;;;;13.30;99.90;;;;;;4804230;29;19925;-69
2022/07/12 00:49:06;;;;;;;;;;;13.30;99.90;;;;;;4805907;29;19929;-69
2022/07/12 00:51:32;;;;;;;;;;;13.30;99.90;;;;;;4789296;29;19925;-70
2022/07/12 00:53:58;;;;;;;;;;;13.20;99.90;;;;;;4763932;29;19925;-69
2022/07/12 00:56:24;;;;;;;;;;;13.10;99.90;;;;;;4790233;29;19925;-70
2022/07/12 00:58:50;;;;;;;;;;;13.10;99.90;;;;;;4805160;29;19948;-69
2022/07/12 01:01:15;;;;;;;;;;;13.30;99.90;;;;;;4803538;29;20334;-68
2022/07/12 01:03:41;;;;;;;;;;;13.10;99.90;;;;;;4802696;29;19925;-68
2022/07/12 01:06:07;;;;;;;;;;;13.00;99.90;;;;;;4791570;29;19929;-69
2022/07/12 01:08:33;;;;;;;;;;;13.00;99.90;;;;;;4789148;29;19981;-69
2022/07/12 01:10:59;;;;;;;;;;;13.00;99.90;;;;;;4793919;29;20809;-70
2022/07/12 01:13:25;;;;;;;;;;;13.00;99.90;;;;;;4787609;29;19925;-69
2022/07/12 01:15:52;;;;;;;;;;;13.00;99.90;;;;;;4788074;29;20440;-69
2022/07/12 01:18:18;;;;;;;;;;;12.90;99.90;;;;;;4789608;29;19929;-68
2022/07/12 01:20:44;;;;;;;;;;;12.90;99.90;;;;;;4800721;29;19925;-69
2022/07/12 01:23:10;;;;;;;;;;;12.90;99.90;;;;;;4785086;29;19925;-69
2022/07/12 01:25:35;;;;;;;;;;;13.00;99.90;;;;;;4809561;29;19925;-68
2022/07/12 01:28:01;;;;;;;;;;;12.90;99.90;;;;;;4792963;29;20008;-70
2022/07/12 01:30:27;;;;;;;;;;;12.90;99.90;;;;;;4802663;29;19981;-70
2022/07/12 01:32:52;;;;;;;;;;;12.80;99.90;;;;;;4785032;29;20371;-69
2022/07/12 01:35:18;;;;;;;;;;;12.80;99.90;;;;;;4793317;29;19925;-69
2022/07/12 01:37:44;;;;;;;;;;;12.80;99.90;;;;;;4791134;29;19925;-69
2022/07/12 01:40:10;;;;;;;;;;;12.80;99.90;;;;;;4792034;29;19925;-70
2022/07/12 01:42:36;;;;;;;;;;;12.70;99.90;;;;;;4784601;30;19931;-70
2022/07/12 01:45:02;;;;;;;;;;;12.70;99.90;;;;;;4776924;29;20004;-68
2022/07/12 01:47:29;;;;;;;;;;;12.70;99.90;;;;;;4792038;29;20374;-68
2022/07/12 01:49:54;;;;;;;;;;;12.70;99.90;;;;;;4792939;29;19925;-70
2022/07/12 01:52:20;;;;;;;;;;;12.70;99.90;;;;;;4790703;29;19985;-71
2022/07/12 01:54:46;;;;;;;;;;;12.60;99.90;;;;;;4791081;29;19932;-68
2022/07/12 01:57:12;;;;;;;;;;;12.60;99.90;;;;;;4792442;29;19925;-68
2022/07/12 01:59:37;;;;;;;;;;;12.60;99.90;;;;;;4807179;29;20002;-68
2022/07/12 02:02:03;;;;;;;;;;;12.60;99.90;;;;;;4806664;29;19928;-67
2022/07/12 02:04:29;;;;;;;;;;;12.60;99.90;;;;;;4802061;29;20387;-71
2022/07/12 02:06:55;;;;;;;;;;;12.50;99.90;;;;;;4791855;29;20402;-69
2022/07/12 02:09:21;;;;;;;;;;;12.50;99.90;;;;;;4792781;29;19976;-69
2022/07/12 02:11:47;;;;;;;;;;;12.50;99.90;;;;;;4794349;29;20323;-68
2022/07/12 02:14:12;;;;;;;;;;;12.40;99.90;;;;;;4791709;29;19931;-71
2022/07/12 02:16:38;;;;;;;;;;;12.40;99.90;;;;;;4798784;29;20024;-68
2022/07/12 02:19:04;;;;;;;;;;;12.40;99.90;;;;;;4791075;29;19925;-70
2022/07/12 02:21:30;;;;;;;;;;;12.40;99.90;;;;;;4808612;29;19929;-70
2022/07/12 02:23:55;;;;;;;;;;;12.30;99.90;;;;;;4792193;29;20283;-69
2022/07/12 02:26:21;;;;;;;;;;;12.30;99.90;;;;;;4786994;29;20012;-70
2022/07/12 02:28:46;;;;;;;;;;;12.30;99.90;;;;;;4790020;29;19928;-69
2022/07/12 02:31:12;;;;;;;;;;;12.30;99.90;;;;;;4807323;29;19925;-70
2022/07/12 02:33:37;;;;;;;;;;;12.20;99.90;;;;;;4805828;29;20438;-70
2022/07/12 02:36:03;;;;;;;;;;;12.20;99.90;;;;;;4791101;29;19932;-70
2022/07/12 02:38:28;;;;;;;;;;;12.10;99.90;;;;;;4792008;29;20371;-69
2022/07/12 02:40:54;;;;;;;;;;;12.20;99.90;;;;;;4795575;29;20288;-70
2022/07/12 02:43:23;;;;;;;;;;;12.10;99.90;;;;;;4779854;29;20371;-68
2022/07/12 02:45:49;;;;;;;;;;;12.10;99.90;;;;;;4808200;29;20027;-68
2022/07/12 02:48:15;;;;;;;;;;;12.00;99.90;;;;;;4798647;29;20349;-70
2022/07/12 02:50:41;;;;;;;;;;;12.00;99.90;;;;;;4792491;29;19925;-70
2022/07/12 02:53:07;;;;;;;;;;;12.00;99.90;;;;;;4791176;29;19928;-69
2022/07/12 02:55:33;;;;;;;;;;;11.90;99.90;;;;;;4791778;29;20375;-69
2022/07/12 02:57:59;;;;;;;;;;;11.90;99.90;;;;;;4776645;29;19925;-70
2022/07/12 03:00:24;;;;;;;;;;;11.90;99.90;;;;;;4790909;29;19925;-68
2022/07/12 03:02:50;;;;;;;;;;;11.90;99.90;;;;;;4782758;29;20375;-69
2022/07/12 03:05:15;;;;;;;;;;;11.90;99.90;;;;;;4773919;29;19926;-71
2022/07/12 03:07:41;;;;;;;;;;;11.80;99.90;;;;;;4773490;30;20006;-68
2022/07/12 03:10:06;;;;;;;;;;;11.80;99.90;;;;;;4789491;29;19953;-69
2022/07/12 03:12:32;;;;;;;;;;;11.80;99.90;;;;;;4800304;29;19933;-67
2022/07/12 03:14:58;;;;;;;;;;;11.70;99.90;;;;;;4791836;29;19925;-69
2022/07/12 03:17:23;;;;;;;;;;;11.70;99.90;;;;;;4805953;29;20398;-70
2022/07/12 03:19:49;;;;;;;;;;;11.70;99.90;;;;;;4807643;29;19976;-68
2022/07/12 03:22:14;;;;;;;;;;;11.70;99.90;;;;;;4791381;29;20322;-69
2022/07/12 03:24:40;;;;;;;;;;;11.70;99.90;;;;;;4791335;29;20434;-69
2022/07/12 03:27:06;;;;;;;;;;;11.70;99.90;;;;;;4786496;29;19932;-70
2022/07/12 03:29:31;;;;;;;;;;;11.60;99.90;;;;;;4777821;29;20007;-68
2022/07/12 03:31:57;;;;;;;;;;;11.60;99.90;;;;;;4804761;29;19929;-71
2022/07/12 03:34:22;;;;;;;;;;;11.60;99.90;;;;;;4805784;29;19989;-69
2022/07/12 03:36:48;;;;;;;;;;;11.60;99.90;;;;;;4805863;29;19932;-70
2022/07/12 03:39:13;;;;;;;;;;;11.60;99.90;;;;;;4804914;29;20332;-70
2022/07/12 03:41:39;;;;;;;;;;;11.60;99.90;;;;;;4799912;29;19964;-68
2022/07/12 03:44:05;;;;;;;;;;;11.50;99.90;;;;;;4791603;29;20252;-68
2022/07/12 03:46:32;;;;;;;;;;;11.50;99.90;;;;;;4788029;29;20398;-69
2022/07/12 03:48:58;;;;;;;;;;;11.50;99.90;;;;;;4787753;29;19931;-69
2022/07/12 03:51:24;;;;;;;;;;;11.60;99.90;;;;;;4787808;29;19926;-70
2022/07/12 03:53:50;;;;;;;;;;;11.60;99.90;;;;;;4790302;29;19925;-68
2022/07/12 03:57:13;;;;;;;;;;;11.60;99.90;;;;;;4787957;29;19928;-70
2022/07/12 03:59:01;;;;;;;;;;;11.60;99.90;;;;;;4772643;30;19925;-68
2022/07/12 04:01:26;;;;;;;;;;;11.70;99.90;;;;;;4795170;29;20294;-67
2022/07/12 04:03:52;;;;;;;;;;;11.70;99.90;;;;;;4789940;29;19928;-68
2022/07/12 04:06:17;;;;;;;;;;;11.70;99.90;;;;;;4790267;29;20005;-70
2022/07/12 04:08:43;;;;;;;;;;;11.70;99.90;;;;;;4789096;29;19925;-68
2022/07/12 04:11:08;;;;;;;;;;;11.70;99.90;;;;;;4787463;29;19933;-69
2022/07/12 04:13:33;;;;;;;;;;;11.80;99.90;;;;;;4774518;30;20041;-68
2022/07/12 04:15:59;;;;;;;;;;;11.90;99.90;;;;;;4772345;29;19962;-69
2022/07/12 04:18:24;;;;;;;;;;;11.90;99.90;;;;;;4771968;29;20032;-70
2022/07/12 04:20:50;;;;;;;;;;;12.00;99.90;;;;;;4785746;29;20697;-68
2022/07/12 04:23:15;;;;;;;;;;;12.00;99.90;;;;;;4805029;29;19985;-68
2022/07/12 04:25:41;;;;;;;;;;;12.10;99.90;;;;;;4803969;29;20327;-68
2022/07/12 04:28:06;;;;;;;;;;;12.10;99.90;;;;;;4805598;29;19932;-68
2022/07/12 04:30:32;;;;;;;;;;;12.20;99.90;;;;;;4805393;29;19925;-68
2022/07/12 04:32:57;;;;;;;;;;;12.30;99.90;;;;;;4804617;29;19929;-69
2022/07/12 04:35:23;;;;;;;;;;;12.30;99.90;;;;;;4799162;29;19988;-70
2022/07/12 04:37:48;;;;;;;;;;;12.30;99.90;;;;;;4786977;29;19925;-70
2022/07/12 04:40:14;;;;;;;;;;;12.40;99.90;;;;;;4803244;29;19925;-68
2022/07/12 04:42:39;;;;;;;;;;;12.40;99.90;;;;;;4789645;29;19925;-70
2022/07/12 04:45:05;;;;;;;;;;;12.40;99.90;;;;;;4789735;29;19929;-70
2022/07/12 04:47:31;;;;;;;;;;;12.40;99.90;;;;;;4788658;29;20275;-70
2022/07/12 04:49:56;;;;;;;;;;;12.40;99.90;;;;;;4778079;29;20012;-68
2022/07/12 04:52:22;;;;;;;;;;;12.40;99.90;;;;;;4776105;30;19937;-69
2022/07/12 04:54:47;;;;;;;;;;;12.50;99.90;;;;;;4789882;29;20663;-67
2022/07/12 04:57:13;;;;;;;;;;;12.40;99.90;;;;;;4804512;29;19925;-68
2022/07/12 04:59:38;;;;;;;;;;;12.40;99.90;;;;;;4790001;29;20332;-69
2022/07/12 05:02:04;;;;;;;;;;;12.50;99.90;;;;;;4786850;29;19948;-67
2022/07/12 05:04:33;;;;;;;;;;;12.50;99.90;;;;;;4787775;29;20375;-67
2022/07/12 05:06:59;;;;;;;;;;;12.50;99.90;;;;;;4804698;29;19932;-67
2022/07/12 05:09:24;;;;;;;;;;;12.60;99.90;;;;;;4805689;29;20383;-68
2022/07/12 05:11:50;;;;;;;;;;;12.70;99.90;;;;;;4801397;29;19931;-69
2022/07/12 05:14:16;;;;;;;;;;;12.70;99.90;;;;;;4800656;29;19932;-67
2022/07/12 05:16:41;;;;;;;;;;;12.80;99.90;;;;;;4802310;29;19978;-69
2022/07/12 05:19:07;;;;;;;;;;;12.90;99.90;;;;;;4787941;29;19929;-67
2022/07/12 05:21:34;;;;;;;;;;;13.00;99.90;;;;;;4797470;29;20005;-69
2022/07/12 05:24:00;;;;;;;;;;;13.00;99.90;;;;;;4807586;29;19925;-69
2022/07/12 05:26:26;;;;;;;;;;;13.20;99.90;;;;;;4799960;29;19925;-68
2022/07/12 05:28:52;;;;;;;;;;;13.30;99.90;;;;;;4783992;29;20351;-66
2022/07/12 05:31:18;;;;;;;;;;;13.40;99.90;;;;;;4787092;29;19925;-69
2022/07/12 05:33:44;;;;;;;;;;;13.60;99.90;;;;;;4802716;29;19929;-68
2022/07/12 05:36:09;;;;;;;;;;;13.80;99.90;;;;;;4805140;29;19925;-69
2022/07/12 05:38:35;;;;;;;;;;;14.40;99.90;;;;;;4781010;29;19989;-67
2022/07/12 05:41:00;;;;;;;;;;;15.30;99.90;;;;;;4788992;29;20066;-70
2022/07/12 05:43:26;;;;;;;;;;;16.70;99.90;;;;;;4805267;29;19973;-69
2022/07/12 05:45:52;;;;;;;;;;;17.90;99.90;;;;;;4803359;29;20298;-68
2022/07/12 05:48:17;;;;;;;;;;;19.00;99.90;;;;;;4785843;29;19936;-68
2022/07/12 05:50:43;;;;;;;;;;;19.90;99.90;;;;;;4795754;29;20015;-69
2022/07/12 05:53:24;;;;;;;;;;;20.60;99.90;;;;;;4805009;29;19941;-68
2022/07/12 05:55:53;;;;;;;;;;;21.40;99.90;;;;;;4777654;29;19982;-66
2022/07/12 05:58:19;;;;;;;;;;;22.20;99.90;;;;;;4789212;29;20065;-68
2022/07/12 06:00:46;;;;;;;;;;;22.60;99.90;;;;;;4795585;29;19926;-68
2022/07/12 06:03:13;;;;;;;;;;;22.90;99.90;;;;;;4772122;30;20046;-71
2022/07/12 06:05:39;;;;;;;;;;;23.20;99.90;;;;;;4790873;29;19925;-71
2022/07/12 06:08:04;;;;;;;;;;;23.00;99.90;;;;;;4803232;29;19932;-69
2022/07/12 06:10:30;;;;;;;;;;;22.40;99.90;;;;;;4792289;29;19925;-68
2022/07/12 06:12:55;;;;;;;;;;;21.60;99.90;;;;;;4792641;29;19975;-70
2022/07/12 06:15:21;;;;;;;;;;;20.90;99.90;;;;;;4808671;29;19932;-69
2022/07/12 06:17:47;;;;;;;;;;;20.30;99.90;;;;;;4808427;29;20008;-72
2022/07/12 06:20:13;;;;;;;;;;;19.90;99.90;;;;;;4808482;29;19925;-71
2022/07/12 06:22:38;;;;;;;;;;;19.70;99.90;;;;;;4790329;29;19925;-70
2022/07/12 06:25:04;;;;;;;;;;;19.50;99.90;;;;;;4789284;29;20298;-71
2022/07/12 06:27:30;;;;;;;;;;;19.30;99.90;;;;;;4790326;29;19926;-71
2022/07/12 06:29:55;;;;;;;;;;;19.30;99.90;;;;;;4788554;29;20032;-70
2022/07/12 06:32:21;;;;;;;;;;;19.30;99.90;;;;;;4804584;29;19925;-69
2022/07/12 06:34:47;;;;;;;;;;;19.20;99.90;;;;;;4791842;29;20007;-70
2022/07/12 06:37:14;;;;;;;;;;;19.10;99.90;;;;;;4789463;29;20027;-69
2022/07/12 06:39:40;;;;;;;;;;;19.00;99.90;;;;;;4808224;29;19951;-68
2022/07/12 06:42:06;;;;;;;;;;;19.20;99.90;;;;;;4787325;29;20403;-67
2022/07/12 06:44:32;;;;;;;;;;;19.10;99.90;;;;;;4776511;29;19925;-68
2022/07/12 06:46:58;;;;;;;;;;;19.20;99.90;;;;;;4773086;29;19933;-69
2022/07/12 06:49:25;;;;;;;;;;;19.30;99.90;;;;;;4773826;30;19951;-70
2022/07/12 06:51:50;;;;;;;;;;;19.40;99.90;;;;;;4789928;30;19925;-70
2022/07/12 06:54:16;;;;;;;;;;;19.30;99.90;;;;;;4773699;30;19974;-69
2022/07/12 06:56:41;;;;;;;;;;;19.40;99.90;;;;;;4790083;29;19925;-68
2022/07/12 06:59:10;;;;;;;;;;;19.40;99.90;;;;;;4773919;30;19929;-69
2022/07/12 07:01:36;;;;;;;;;;;19.60;99.90;;;;;;4773489;30;19926;-70
2022/07/12 07:04:02;;;;;;;;;;;19.70;99.90;;;;;;4773881;30;19934;-70
2022/07/12 07:06:28;;;;;;;;;;;19.80;99.90;;;;;;4789848;29;19929;-69
2022/07/12 07:08:54;;;;;;;;;;;20.00;99.90;;;;;;4773580;30;20009;-68
2022/07/12 07:11:19;;;;;;;;;;;20.00;99.90;;;;;;4773695;30;20359;-69
2022/07/12 07:13:45;;;;;;;;;;;20.10;99.90;;;;;;4779574;29;20397;-68
2022/07/12 07:16:10;;;;;;;;;;;20.20;99.90;;;;;;4807505;29;19932;-70
2022/07/12 07:18:36;;;;;;;;;;;20.40;99.90;;;;;;4776136;29;19928;-69
2022/07/12 07:21:01;;;;;;;;;;;20.40;99.90;;;;;;4791503;29;19941;-70
2022/07/12 07:23:27;;;;;;;;;;;20.50;99.90;;;;;;4807372;29;20023;-71
2022/07/12 07:25:52;;;;;;;;;;;20.60;99.90;;;;;;4776525;29;20310;-69
2022/07/12 07:28:18;;;;;;;;;;;20.60;99.90;;;;;;4790366;29;19925;-71
2022/07/12 07:30:52;;;;;;;;;;;20.70;99.90;;;;;;4806892;29;20333;-70
2022/07/12 07:33:19;;;;;;;;;;;20.80;99.90;;;;;;4772707;30;20362;-71
2022/07/12 07:35:44;;;;;;;;;;;21.20;99.90;;;;;;4773029;29;19929;-68
2022/07/12 07:38:10;;;;;;;;;;;21.20;99.90;;;;;;4790398;29;20316;-69
2022/07/12 07:40:36;;;;;;;;;;;21.10;99.90;;;;;;4805752;29;19978;-70
2022/07/12 07:43:01;;;;;;;;;;;21.20;99.90;;;;;;4805294;29;19921;-70
2022/07/12 07:45:27;;;;;;;;;;;21.30;99.90;;;;;;4793571;29;19983;-69
2022/07/12 07:47:52;;;;;;;;;;;21.50;99.90;;;;;;4776306;29;19929;-70
2022/07/12 07:50:18;;;;;;;;;;;21.50;99.90;;;;;;4790474;29;19925;-68
2022/07/12 07:52:44;;;;;;;;;;;21.60;99.90;;;;;;4790325;29;19998;-71
2022/07/12 07:55:09;;;;;;;;;;;21.70;99.90;;;;;;4790689;29;19932;-69
2022/07/12 07:57:35;;;;;;;;;;;21.90;99.90;;;;;;4790923;29;19925;-70
2022/07/12 08:00:01;;;;;;;;;;;21.90;99.90;;;;;;4790734;29;19925;-71
2022/07/12 08:02:26;;;;;;;;;;;21.90;99.90;;;;;;4770807;29;19925;-69
2022/07/12 08:04:52;;;;;;;;;;;21.80;99.90;;;;;;4769063;30;19932;-70
2022/07/12 08:07:17;;;;;;;;;;;21.60;99.90;;;;;;4764780;29;19991;-69
2022/07/12 08:09:43;;;;;;;;;;;21.60;99.90;;;;;;4783524;29;19932;-69
2022/07/12 08:12:08;;;;;;;;;;;21.70;99.90;;;;;;4790364;29;20024;-68
2022/07/12 08:14:34;;;;;;;;;;;21.90;99.90;;;;;;4773669;29;20042;-70
2022/07/12 08:16:59;;;;;;;;;;;22.10;99.90;;;;;;4789899;29;19925;-70
2022/07/12 08:19:25;;;;;;;;;;;22.30;99.90;;;;;;4805793;29;20035;-71
2022/07/12 08:21:50;;;;;;;;;;;22.40;99.90;;;;;;4803185;29;20293;-69
2022/07/12 08:24:16;;;;;;;;;;;22.60;99.90;;;;;;4788777;29;19924;-71
2022/07/12 08:26:41;;;;;;;;;;;22.60;99.90;;;;;;4774181;29;19985;-72
2022/07/12 08:29:07;;;;;;;;;;;22.70;99.90;;;;;;4806381;29;19924;-67
2022/07/12 08:31:32;;;;;;;;;;;22.80;99.90;;;;;;4790098;29;19967;-67
2022/07/12 08:33:58;;;;;;;;;;;22.80;99.90;;;;;;4789781;29;19925;-68
2022/07/12 08:36:23;;;;;;;;;;;22.80;99.90;;;;;;4790043;29;19975;-71
2022/07/12 08:38:49;;;;;;;;;;;22.90;99.90;;;;;;4776667;29;19926;-73
2022/07/12 08:41:14;;;;;;;;;;;22.90;99.90;;;;;;4757436;30;20059;-71
2022/07/12 08:43:40;;;;;;;;;;;22.90;99.90;;;;;;4771671;30;19956;-70
2022/07/12 08:46:10;;;;;;;;;;;22.90;99.90;;;;;;4782834;29;20120;-74
2022/07/12 08:48:36;;;;;;;;;;;22.90;99.90;;;;;;4805985;29;19925;-71
2022/07/12 08:51:12;;;;;;;;;;;23.00;99.90;;;;;;4790114;29;19941;-77
2022/07/12 08:53:38;;;;;;;;;;;23.00;99.90;;;;;;4789163;29;20371;-71
2022/07/12 08:56:04;;;;;;;;;;;23.30;99.90;;;;;;4805511;29;19933;-73
2022/07/12 08:58:29;;;;;;;;;;;23.20;99.90;;;;;;4805002;29;19925;-77
2022/07/12 09:00:55;;;;;;;;;;;23.40;99.90;;;;;;4795956;29;19931;-69
2022/07/12 09:03:21;;;;;;;;;;;23.30;99.90;;;;;;4803748;29;20012;-68
2022/07/12 09:05:51;;;;;;;;;;;23.40;99.90;;;;;;4789703;29;20016;-69
2022/07/12 09:08:16;;;;;;;;;;;23.50;99.90;;;;;;4804955;29;20330;-68
2022/07/12 09:10:52;;;;;;;;;;;23.70;99.90;;;;;;4806265;29;19921;-71
2022/07/12 09:13:18;;;;;;;;;;;23.80;99.90;;;;;;4805981;29;19921;-70
2022/07/12 09:15:46;;;;;;;;;;;23.90;99.90;;;;;;4789966;29;19925;-71
2022/07/12 09:18:22;;;;;;;;;;;23.80;99.90;;;;;;4805104;29;20305;-73
2022/07/12 09:20:51;;;;;;;;;;;23.90;99.90;;;;;;4790340;29;19968;-70
2022/07/12 09:23:17;;;;;;;;;;;23.90;99.90;;;;;;4788999;29;19928;-72
2022/07/12 09:25:46;;;;;;;;;;;24.00;99.90;;;;;;4789498;29;19978;-72
2022/07/12 09:28:12;;;;;;;;;;;24.00;99.90;;;;;;4789328;29;19925;-73
2022/07/12 09:30:48;;;;;;;;;;;24.20;99.90;;;;;;4789647;29;19925;-71
2022/07/12 09:36:07;;;;;;;;;;;24.30;99.90;;;;;;4774811;29;19921;-71
2022/07/12 09:38:40;;;;;;;;;;;24.40;99.90;;;;;;4791195;29;20024;-70
2022/07/12 09:41:06;;;;;;;;;;;24.60;99.90;;;;;;4783901;29;20024;-68
2022/07/12 09:43:32;;;;;;;;;;;24.90;99.90;;;;;;4774721;30;19978;-69
2022/07/12 09:45:58;;;;;;;;;;;24.90;99.90;;;;;;4791946;29;20365;-69
2022/07/12 09:48:23;;;;;;;;;;;24.90;99.90;;;;;;4792274;29;20016;-68
2022/07/12 09:50:50;;;;;;;;;;;24.80;99.90;;;;;;4792983;29;19931;-68
2022/07/12 09:53:21;;;;;;;;;;;24.70;99.90;;;;;;4792803;29;19936;-67
2022/07/12 09:55:48;;;;;;;;;;;24.70;99.90;;;;;;4808716;29;19925;-68
2022/07/12 09:58:14;;;;;;;;;;;24.70;99.90;;;;;;4808436;29;19925;-69
2022/07/12 10:00:40;;;;;;;;;;;24.60;99.90;;;;;;4807733;29;19933;-68
2022/07/12 10:03:07;;;;;;;;;;;24.70;99.90;;;;;;4807467;29;20303;-68
2022/07/12 10:05:33;;;;;;;;;;;24.70;99.90;;;;;;4809036;29;19925;-67
2022/07/12 10:08:00;;;;;;;;;;;24.70;99.90;;;;;;4807082;29;20019;-69
2022/07/12 10:10:27;;;;;;;;;;;24.70;99.90;;;;;;4774882;29;19925;-69
2022/07/12 10:12:52;;;;;;;;;;;24.90;99.90;;;;;;4789577;29;20362;-69
2022/07/12 10:15:20;;;;;;;;;;;25.00;99.90;;;;;;4791022;29;20055;-68
2022/07/12 10:17:53;;;;;;;;;;;25.00;99.90;;;;;;4790786;29;20312;-67
2022/07/12 10:20:22;;;;;;;;;;;25.10;99.90;;;;;;4780903;30;20008;-69
2022/07/12 10:22:47;;;;;;;;;;;25.10;99.90;;;;;;4780235;29;20047;-69
2022/07/12 10:25:42;;;;;;;;;;;25.20;99.90;;;;;;4802331;29;20008;-67
2022/07/12 10:28:08;;;;;;;;;;;25.20;99.90;;;;;;4784283;29;20019;-68
2022/07/12 10:30:44;;;;;;;;;;;25.30;99.90;;;;;;4806307;29;19997;-69
2022/07/12 10:33:17;;;;;;;;;;;25.20;99.90;;;;;;4803557;29;20331;-69
2022/07/12 10:35:59;;;;;;;;;;;25.30;99.90;;;;;;4790482;29;19972;-69
2022/07/12 10:38:25;;;;;;;;;;;25.40;99.90;;;;;;4789080;30;19925;-69
2022/07/12 10:40:51;;;;;;;;;;;25.60;99.90;;;;;;4774360;30;19969;-68
2022/07/12 10:43:19;;;;;;;;;;;25.60;99.90;;;;;;4789955;29;19933;-69
2022/07/12 10:45:46;;;;;;;;;;;25.50;99.90;;;;;;4792903;29;20145;-68
2022/07/12 10:48:12;;;;;;;;;;;25.50;99.90;;;;;;4789806;29;20019;-68
2022/07/12 10:50:41;;;;;;;;;;;25.60;99.90;;;;;;4806531;29;20407;-69
2022/07/12 10:53:18;;;;;;;;;;;25.50;99.90;;;;;;4806890;29;19925;-69
2022/07/12 10:56:02;;;;;;;;;;;25.60;99.90;;;;;;4808214;29;19926;-69
2022/07/12 10:58:30;;;;;;;;;;;25.70;99.90;;;;;;4791468;29;19929;-67
2022/07/12 11:00:55;;;;;;;;;;;25.70;99.90;;;;;;4775669;29;19928;-67
2022/07/12 11:03:22;;;;;;;;;;;25.70;99.90;;;;;;4806761;29;20078;-69
2022/07/12 11:05:47;;;;;;;;;;;25.70;99.90;;;;;;4808093;29;19936;-68
2022/07/12 11:08:16;;;;;;;;;;;25.70;99.90;;;;;;4791390;29;19929;-65
2022/07/12 11:10:54;;;;;;;;;;;25.90;99.90;;;;;;4807863;29;19932;-68
2022/07/12 11:13:20;;;;;;;;;;;26.00;99.90;;;;;;4789664;29;20272;-68
2022/07/12 11:15:59;;;;;;;;;;;26.00;99.90;;;;;;4785053;30;20021;-67
2022/07/12 11:18:31;;;;;;;;;;;26.00;99.90;;;;;;4773107;30;19965;-68
2022/07/12 11:20:57;;;;;;;;;;;26.00;99.90;;;;;;4773674;30;19933;-66
2022/07/12 11:23:24;;;;;;;;;;;26.20;99.90;;;;;;4773358;30;20008;-67
2022/07/12 11:25:50;;;;;;;;;;;26.30;99.90;;;;;;4789290;29;19929;-67
2022/07/12 11:28:17;;;;;;;;;;;26.60;99.90;;;;;;4786608;29;20060;-67
2022/07/12 11:30:50;;;;;;;;;;;26.60;99.90;;;;;;4790473;29;19932;-67
2022/07/12 11:33:15;;;;;;;;;;;26.90;99.90;;;;;;4806723;29;19925;-67
2022/07/12 11:35:43;;;;;;;;;;;26.80;99.90;;;;;;4789963;29;20272;-68
2022/07/12 11:38:09;;;;;;;;;;;26.90;99.90;;;;;;4807096;29;20057;-68
2022/07/12 11:40:34;;;;;;;;;;;26.90;99.90;;;;;;4806895;29;20351;-68
2022/07/12 11:43:00;;;;;;;;;;;26.90;99.90;;;;;;4805880;29;19982;-69
2022/07/12 11:45:30;;;;;;;;;;;27.00;99.90;;;;;;4799351;29;20240;-68
2022/07/12 11:47:57;;;;;;;;;;;27.00;99.90;;;;;;4789384;29;19933;-69
2022/07/12 11:50:23;;;;;;;;;;;26.90;99.90;;;;;;4806355;29;19974;-67
2022/07/12 11:52:48;;;;;;;;;;;26.90;99.90;;;;;;4807025;29;19929;-69
2022/07/12 11:55:14;;;;;;;;;;;26.80;99.90;;;;;;4790733;29;19954;-67
2022/07/12 11:57:39;;;;;;;;;;;26.90;99.90;;;;;;4790831;29;19925;-66
2022/07/12 12:00:19;;;;;;;;;;;26.90;99.90;;;;;;4784135;29;20367;-67
2022/07/12 12:02:44;;;;;;;;;;;26.90;99.90;;;;;;4774678;29;19951;-68
2022/07/12 12:05:10;;;;;;;;;;;26.90;99.90;;;;;;4806943;29;19925;-67
2022/07/12 12:07:36;;;;;;;;;;;26.90;99.90;;;;;;4806399;29;19929;-69
2022/07/12 12:10:04;;;;;;;;;;;26.80;99.90;;;;;;4804420;29;19925;-68
2022/07/12 12:12:36;;;;;;;;;;;26.80;99.90;;;;;;4781490;29;19932;-69
2022/07/12 12:15:03;;;;;;;;;;;26.70;98.80;;;;;;4805980;29;19932;-67
2022/07/12 12:17:29;;;;;;;;;;;26.60;99.90;;;;;;4806369;29;19929;-67
2022/07/12 12:19:54;;;;;;;;;;;26.60;99.90;;;;;;4775775;29;19932;-67
2022/07/12 12:22:33;;;;;;;;;;;26.80;99.90;;;;;;4806595;29;20023;-69
2022/07/12 12:24:59;;;;;;;;;;;26.80;99.90;;;;;;4790341;29;19925;-68
2022/07/12 12:27:25;;;;;;;;;;;26.80;99.90;;;;;;4806192;29;20406;-69
2022/07/12 12:29:51;;;;;;;;;;;26.90;99.90;;;;;;4785032;29;19925;-69
2022/07/12 12:32:20;;;;;;;;;;;26.90;98.90;;;;;;4805991;29;19929;-67
2022/07/12 12:35:12;;;;;;;;;;;27.00;98.20;;;;;;4790007;29;19931;-68
2022/07/12 12:37:54;;;;;;;;;;;27.00;98.20;;;;;;4776626;29;19928;-68
2022/07/12 12:40:21;;;;;;;;;;;27.20;99.40;;;;;;4790412;29;20329;-69
2022/07/12 12:42:50;;;;;;;;;;;27.30;99.90;;;;;;4775039;29;20347;-68
2022/07/12 12:48:33;;;;;;;;;;;27.40;99.90;;;;;;4805695;29;19921;-68
2022/07/12 12:51:02;;;;;;;;;;;27.20;99.90;;;;;;4779418;30;20008;-67
2022/07/12 12:53:40;;;;;;;;;;;27.10;98.80;;;;;;4786106;29;19929;-68
2022/07/12 12:56:08;;;;;;;;;;;27.20;99.90;;;;;;4790318;29;19924;-69
2022/07/12 12:58:34;;;;;;;;;;;27.10;99.90;;;;;;4774710;29;19928;-68
2022/07/12 13:01:00;;;;;;;;;;;27.20;99.90;;;;;;4789868;29;20011;-66
2022/07/12 13:03:26;;;;;;;;;;;27.40;99.90;;;;;;4789265;29;20058;-66
2022/07/12 13:05:52;;;;;;;;;;;27.50;99.90;;;;;;4805005;29;19921;-66
2022/07/12 13:08:21;;;;;;;;;;;27.50;99.90;;;;;;4787042;29;20367;-69
2022/07/12 13:14:04;;;;;;;;;;;27.40;99.90;;;;;;4806307;29;19972;-67
2022/07/12 13:16:31;;;;;;;;;;;27.20;99.90;;;;;;4774991;30;19933;-67
2022/07/12 13:18:56;;;;;;;;;;;27.30;99.90;;;;;;4778154;29;19944;-67
2022/07/12 13:21:22;;;;;;;;;;;27.40;99.20;;;;;;4808552;29;19929;-68
2022/07/12 13:23:50;;;;;;;;;;;27.50;99.90;;;;;;4780923;29;19926;-69
2022/07/12 13:26:15;;;;;;;;;;;27.60;97.10;;;;;;4767260;30;19922;-66
2022/07/12 13:28:44;;;;;;;;;;;27.60;90.10;;;;;;4796423;29;19921;-66
2022/07/12 13:31:09;;;;;;;;;;;27.50;71.00;;;;;;4773033;29;20033;-67
2022/07/12 13:33:36;;;;;;;;;;;27.30;67.10;;;;;;4781455;29;20004;-68
2022/07/12 13:36:11;;;;;;;;;;;27.50;76.40;;;;;;4784022;29;20044;-68
2022/07/12 13:40:10;;;;;;;;;;;27.70;93.70;;;;;;4776854;29;20008;-67
2022/07/12 13:41:35;;;;;;;;;;;27.60;91.90;;;;;;4791463;29;19973;-67
2022/07/12 13:44:06;;;;;;;;;;;27.60;97.80;;;;;;4790187;29;19928;-67
2022/07/12 13:46:31;;;;;;;;;;;27.60;88.20;;;;;;4792020;29;19928;-68
2022/07/12 13:48:57;;;;;;;;;;;27.60;74.20;;;;;;4807638;29;19924;-66
2022/07/12 13:51:23;;;;;;;;;;;27.80;76.20;;;;;;4808936;29;20286;-67
2022/07/12 13:53:48;;;;;;;;;;;27.80;73.60;;;;;;4808210;29;19925;-68
2022/07/12 13:56:14;;;;;;;;;;;27.70;67.90;;;;;;4793026;29;19925;-67
2022/07/12 13:58:39;;;;;;;;;;;27.70;75.40;;;;;;4804170;29;19973;-67
2022/07/12 14:01:08;;;;;;;;;;;27.80;81.20;;;;;;4804534;29;19932;-67
2022/07/12 14:03:34;;;;;;;;;;;27.70;79.00;;;;;;4785368;29;19925;-68
2022/07/12 14:06:24;;;;;;;;;;;27.70;73.50;;;;;;4808847;29;19932;-68
2022/07/12 14:08:51;;;;;;;;;;;27.60;85.80;;;;;;4795822;29;20032;-68
2022/07/12 14:11:16;;;;;;;;;;;27.70;82.90;;;;;;4790147;29;20425;-68
2022/07/12 14:13:43;;;;;;;;;;;27.60;94.60;;;;;;4774263;30;19929;-67
2022/07/12 14:16:13;;;;;;;;;;;27.70;97.70;;;;;;4792381;29;19954;-65
2022/07/12 14:22:21;;;;;;;;;;;27.70;99.90;;;;;;4807939;29;19920;-67
2022/07/12 14:24:46;;;;;;;;;;;27.70;89.80;;;;;;4774530;30;19925;-68
2022/07/12 14:27:12;;;;;;;;;;;27.70;91.40;;;;;;4774451;29;19926;-68